createdAt,value
2017-08-02T00:00:20.715Z,0
2017-08-02T00:01:21.356Z,0
2017-08-02T00:02:20.768Z,0
2017-08-02T00:03:21.425Z,0
2017-08-02T00:04:21.454Z,0
2017-08-02T00:05:21.171Z,0
2017-08-02T00:06:21.188Z,0
2017-08-02T00:07:20.597Z,0
2017-08-02T00:08:21.257Z,0
2017-08-02T00:09:21.603Z,0
2017-08-02T00:10:21.647Z,0
2017-08-02T00:11:21.279Z,0
2017-08-02T00:12:21.380Z,0
2017-08-02T00:13:20.780Z,0
2017-08-02T00:14:21.110Z,0
2017-08-02T00:15:20.839Z,0
2017-08-02T00:16:21.116Z,0
2017-08-02T00:17:20.889Z,0
2017-08-02T00:18:20.930Z,0
2017-08-02T00:19:21.265Z,0
2017-08-02T00:20:21.286Z,0
2017-08-02T00:21:21.577Z,0
2017-08-02T00:22:21.357Z,0
2017-08-02T00:23:21.382Z,0
2017-08-02T00:24:21.727Z,0
2017-08-02T00:25:21.751Z,0
2017-08-02T00:26:22.349Z,0
2017-08-02T00:27:21.497Z,0
2017-08-02T00:28:21.836Z,0
2017-08-02T00:29:21.551Z,0
2017-08-02T00:30:21.612Z,0
2017-08-02T00:31:22.501Z,0
2017-08-02T00:32:21.661Z,0
2017-08-02T00:33:21.670Z,0
2017-08-02T00:34:22.314Z,0
2017-08-02T00:35:22.056Z,0
2017-08-02T00:36:22.060Z,0
2017-08-02T00:37:22.101Z,0
2017-08-02T00:38:21.806Z,0
2017-08-02T00:39:21.842Z,0
2017-08-02T00:40:22.184Z,0
2017-08-02T00:41:22.140Z,0
2017-08-02T00:42:22.569Z,0
2017-08-02T00:43:22.276Z,0
2017-08-02T00:44:21.986Z,0
2017-08-02T00:45:22.328Z,0
2017-08-02T00:46:22.322Z,0
2017-08-02T00:47:22.077Z,0
2017-08-02T00:48:22.102Z,0
2017-08-02T00:49:22.149Z,0
2017-08-02T00:50:22.159Z,0
2017-08-02T00:51:22.799Z,0
2017-08-02T00:52:22.844Z,0
2017-08-02T00:53:22.562Z,0
2017-08-02T00:54:22.275Z,0
2017-08-02T00:55:22.610Z,0
2017-08-02T00:56:22.588Z,0
2017-08-02T00:57:22.673Z,0
2017-08-02T00:58:22.389Z,0
2017-08-02T00:59:22.423Z,0
2017-08-02T01:00:23.108Z,0
2017-08-02T01:01:23.356Z,0
2017-08-02T01:02:22.829Z,0
2017-08-02T01:03:22.547Z,0
2017-08-02T01:04:22.885Z,0
2017-08-02T01:05:22.912Z,0
2017-08-02T01:06:22.617Z,0
2017-08-02T01:07:22.905Z,0
2017-08-02T01:08:23.015Z,0
2017-08-02T01:09:23.028Z,0
2017-08-02T01:10:23.364Z,0
2017-08-02T01:11:23.083Z,0
2017-08-02T01:12:23.041Z,0
2017-08-02T01:13:23.130Z,0
2017-08-02T01:14:22.857Z,0
2017-08-02T01:15:22.888Z,0
2017-08-02T01:16:23.221Z,0
2017-08-02T01:17:23.553Z,0
2017-08-02T01:18:22.970Z,0
2017-08-02T01:19:23.319Z,0
2017-08-02T01:20:23.348Z,0
2017-08-02T01:21:23.053Z,0
2017-08-02T01:22:23.342Z,0
2017-08-02T01:23:23.434Z,0
2017-08-02T01:24:23.456Z,0
2017-08-02T01:25:22.866Z,0
2017-08-02T01:26:23.201Z,0
2017-08-02T01:27:24.126Z,0
2017-08-02T01:28:23.883Z,0
2017-08-02T01:29:23.919Z,0
2017-08-02T01:30:23.332Z,0
2017-08-02T01:31:23.364Z,0
2017-08-02T01:32:23.678Z,0
2017-08-02T01:33:23.418Z,0
2017-08-02T01:34:24.056Z,0
2017-08-02T01:35:24.089Z,0
2017-08-02T01:36:23.814Z,0
2017-08-02T01:37:23.782Z,0
2017-08-02T01:38:23.859Z,0
2017-08-02T01:39:23.896Z,0
2017-08-02T01:40:23.921Z,0
2017-08-02T01:41:23.645Z,0
2017-08-02T01:42:24.282Z,0
2017-08-02T01:43:23.690Z,0
2017-08-02T01:44:24.028Z,0
2017-08-02T01:45:23.156Z,0
2017-08-02T01:46:23.501Z,0
2017-08-02T01:47:23.771Z,0
2017-08-02T01:48:24.151Z,0
2017-08-02T01:49:24.172Z,0
2017-08-02T01:50:24.205Z,0
2017-08-02T01:51:24.250Z,0
2017-08-02T01:52:23.901Z,0
2017-08-02T01:53:24.299Z,0
2017-08-02T01:54:24.327Z,0
2017-08-02T01:55:24.660Z,0
2017-08-02T01:56:24.382Z,0
2017-08-02T01:57:23.745Z,0
2017-08-02T01:58:24.130Z,0
2017-08-02T01:59:24.156Z,0
2017-08-02T02:00:24.497Z,0
2017-08-02T02:01:23.908Z,0
2017-08-02T02:02:24.549Z,0
2017-08-02T02:03:24.585Z,0
2017-08-02T02:04:24.299Z,0
2017-08-02T02:05:24.648Z,0
2017-08-02T02:06:24.358Z,0
2017-08-02T02:07:24.330Z,0
2017-08-02T02:08:25.052Z,0
2017-08-02T02:09:24.438Z,0
2017-08-02T02:10:24.489Z,0
2017-08-02T02:11:24.818Z,0
2017-08-02T02:12:25.414Z,0
2017-08-02T02:13:24.562Z,0
2017-08-02T02:14:24.603Z,0
2017-08-02T02:15:24.624Z,0
2017-08-02T02:16:24.962Z,0
2017-08-02T02:17:25.609Z,0
2017-08-02T02:18:25.035Z,0
2017-08-02T02:19:25.049Z,0
2017-08-02T02:20:25.409Z,0
2017-08-02T02:21:24.809Z,0
2017-08-02T02:22:25.755Z,0
2017-08-02T02:23:25.180Z,0
2017-08-02T02:24:25.208Z,0
2017-08-02T02:25:24.600Z,0
2017-08-02T02:26:24.942Z,0
2017-08-02T02:27:25.578Z,0
2017-08-02T02:28:25.624Z,0
2017-08-02T02:29:25.345Z,0
2017-08-02T02:30:25.054Z,0
2017-08-02T02:31:25.395Z,0
2017-08-02T02:32:25.677Z,0
2017-08-02T02:33:25.456Z,0
2017-08-02T02:34:25.492Z,0
2017-08-02T02:35:25.512Z,0
2017-08-02T02:36:25.847Z,0
2017-08-02T02:37:25.519Z,0
2017-08-02T02:38:24.989Z,0
2017-08-02T02:39:25.625Z,0
2017-08-02T02:40:25.354Z,0
2017-08-02T02:41:25.375Z,0
2017-08-02T02:42:26.014Z,0
2017-08-02T02:43:25.749Z,0
2017-08-02T02:44:25.452Z,0
2017-08-02T02:45:25.489Z,0
2017-08-02T02:46:25.833Z,0
2017-08-02T02:47:26.164Z,0
2017-08-02T02:48:25.889Z,0
2017-08-02T02:49:25.601Z,0
2017-08-02T02:50:25.329Z,0
2017-08-02T02:51:25.663Z,0
2017-08-02T02:52:26.004Z,0
2017-08-02T02:53:26.281Z,0
2017-08-02T02:54:25.127Z,0
2017-08-02T02:55:26.398Z,0
2017-08-02T02:56:26.423Z,0
2017-08-02T02:57:25.559Z,0
2017-08-02T02:58:26.477Z,0
2017-08-02T02:59:26.210Z,0
2017-08-02T03:00:25.922Z,0
2017-08-02T03:01:26.259Z,0
2017-08-02T03:02:26.280Z,0
2017-08-02T03:03:25.938Z,0
2017-08-02T03:04:26.350Z,0
2017-08-02T03:05:26.374Z,0
2017-08-02T03:06:26.404Z,0
2017-08-02T03:07:26.120Z,0
2017-08-02T03:08:26.396Z,0
2017-08-02T03:09:25.553Z,0
2017-08-02T03:10:26.507Z,0
2017-08-02T03:11:26.231Z,0
2017-08-02T03:12:26.572Z,0
2017-08-02T03:13:27.174Z,0
2017-08-02T03:14:26.634Z,0
2017-08-02T03:15:26.667Z,0
2017-08-02T03:16:26.684Z,0
2017-08-02T03:17:26.104Z,0
2017-08-02T03:18:26.993Z,0
2017-08-02T03:19:27.086Z,0
2017-08-02T03:20:26.480Z,0
2017-08-02T03:21:26.835Z,0
2017-08-02T03:22:26.864Z,0
2017-08-02T03:23:27.137Z,0
2017-08-02T03:24:26.925Z,0
2017-08-02T03:25:26.326Z,0
2017-08-02T03:26:26.668Z,0
2017-08-02T03:27:26.384Z,0
2017-08-02T03:28:27.316Z,0
2017-08-02T03:29:26.742Z,0
2017-08-02T03:30:26.795Z,0
2017-08-02T03:31:26.812Z,0
2017-08-02T03:32:26.836Z,0
2017-08-02T03:33:27.497Z,0
2017-08-02T03:34:26.902Z,0
2017-08-02T03:35:26.922Z,0
2017-08-02T03:36:27.587Z,0
2017-08-02T03:37:27.618Z,0
2017-08-02T03:38:27.593Z,0
2017-08-02T03:39:27.673Z,0
2017-08-02T03:40:27.075Z,0
2017-08-02T03:41:27.423Z,0
2017-08-02T03:42:27.741Z,0
2017-08-02T03:43:27.721Z,0
2017-08-02T03:44:27.189Z,0
2017-08-02T03:45:27.522Z,0
2017-08-02T03:46:27.557Z,0
2017-08-02T03:47:27.281Z,0
2017-08-02T03:48:27.602Z,0
2017-08-02T03:49:27.640Z,0
2017-08-02T03:50:27.046Z,0
2017-08-02T03:51:27.698Z,0
2017-08-02T03:52:27.101Z,0
2017-08-02T03:53:27.753Z,0
2017-08-02T03:54:27.170Z,0
2017-08-02T03:55:27.819Z,0
2017-08-02T03:56:27.844Z,0
2017-08-02T03:57:27.865Z,0
2017-08-02T03:58:28.153Z,0
2017-08-02T03:59:27.626Z,0
2017-08-02T04:00:27.654Z,0
2017-08-02T04:01:28.016Z,0
2017-08-02T04:02:28.019Z,0
2017-08-02T04:03:27.989Z,0
2017-08-02T04:04:27.758Z,0
2017-08-02T04:05:27.791Z,0
2017-08-02T04:06:27.504Z,0
2017-08-02T04:07:28.465Z,0
2017-08-02T04:08:28.189Z,0
2017-08-02T04:09:28.215Z,0
2017-08-02T04:10:28.560Z,0
2017-08-02T04:11:27.962Z,0
2017-08-02T04:12:28.617Z,0
2017-08-02T04:13:28.008Z,0
2017-08-02T04:14:28.045Z,0
2017-08-02T04:15:28.405Z,0
2017-08-02T04:16:28.100Z,0
2017-08-02T04:17:28.453Z,0
2017-08-02T04:18:28.787Z,0
2017-08-02T04:19:28.203Z,0
2017-08-02T04:20:28.856Z,0
2017-08-02T04:21:28.564Z,0
2017-08-02T04:22:28.589Z,0
2017-08-02T04:23:29.182Z,0
2017-08-02T04:24:28.339Z,0
2017-08-02T04:25:28.983Z,0
2017-08-02T04:26:28.387Z,0
2017-08-02T04:27:28.426Z,0
2017-08-02T04:28:28.394Z,0
2017-08-02T04:29:28.170Z,0
2017-08-02T04:30:28.515Z,0
2017-08-02T04:31:28.848Z,0
2017-08-02T04:32:28.262Z,0
2017-08-02T04:33:29.469Z,0
2017-08-02T04:34:29.246Z,0
2017-08-02T04:35:28.039Z,0
2017-08-02T04:36:29.305Z,0
2017-08-02T04:37:29.029Z,0
2017-08-02T04:38:29.350Z,0
2017-08-02T04:39:28.767Z,0
2017-08-02T04:40:29.115Z,0
2017-08-02T04:41:28.834Z,0
2017-08-02T04:42:29.175Z,0
2017-08-02T04:43:28.877Z,0
2017-08-02T04:44:28.599Z,0
2017-08-02T04:45:28.623Z,0
2017-08-02T04:46:28.977Z,0
2017-08-02T04:47:29.313Z,0
2017-08-02T04:48:29.635Z,0
2017-08-02T04:49:29.062Z,0
2017-08-02T04:50:29.698Z,0
2017-08-02T04:51:29.112Z,0
2017-08-02T04:52:29.766Z,0
2017-08-02T04:53:30.044Z,0
2017-08-02T04:54:29.539Z,0
2017-08-02T04:55:29.540Z,0
2017-08-02T04:56:28.933Z,0
2017-08-02T04:57:29.609Z,0
2017-08-02T04:58:28.999Z,0
2017-08-02T04:59:29.932Z,0
2017-08-02T05:00:29.372Z,0
2017-08-02T05:01:29.397Z,0
2017-08-02T05:02:29.433Z,5
2017-08-02T05:03:29.450Z,5
2017-08-02T05:04:30.112Z,5
2017-08-02T05:05:29.508Z,5
2017-08-02T05:06:30.177Z,5
2017-08-02T05:07:29.881Z,5
2017-08-02T05:08:29.917Z,5
2017-08-02T05:09:29.887Z,5
2017-08-02T05:10:29.657Z,5
2017-08-02T05:11:30.003Z,5
2017-08-02T05:12:30.340Z,5
2017-08-02T05:13:30.370Z,5
2017-08-02T05:14:30.695Z,5
2017-08-02T05:15:30.122Z,5
2017-08-02T05:16:29.824Z,5
2017-08-02T05:17:29.865Z,5
2017-08-02T05:18:30.518Z,5
2017-08-02T05:19:30.168Z,5
2017-08-02T05:20:30.256Z,5
2017-08-02T05:21:30.285Z,5
2017-08-02T05:22:30.020Z,5
2017-08-02T05:23:30.356Z,5
2017-08-02T05:24:30.058Z,5
2017-08-02T05:25:30.089Z,5
2017-08-02T05:26:30.120Z,5
2017-08-02T05:27:30.768Z,5
2017-08-02T05:28:30.483Z,5
2017-08-02T05:29:31.078Z,0
2017-08-02T05:30:30.548Z,0
2017-08-02T05:31:30.881Z,5
2017-08-02T05:32:30.613Z,5
2017-08-02T05:33:30.623Z,5
2017-08-02T05:34:30.607Z,5
2017-08-02T05:35:30.384Z,5
2017-08-02T05:36:31.035Z,5
2017-08-02T05:37:30.746Z,5
2017-08-02T05:38:30.463Z,5
2017-08-02T05:39:31.053Z,5
2017-08-02T05:40:30.212Z,5
2017-08-02T05:41:31.164Z,5
2017-08-02T05:42:30.892Z,5
2017-08-02T05:43:30.614Z,5
2017-08-02T05:44:31.191Z,5
2017-08-02T05:45:30.975Z,5
2017-08-02T05:46:31.317Z,5
2017-08-02T05:47:31.038Z,5
2017-08-02T05:48:30.439Z,5
2017-08-02T05:49:31.389Z,5
2017-08-02T05:50:31.437Z,5
2017-08-02T05:51:31.147Z,5
2017-08-02T05:52:31.174Z,5
2017-08-02T05:53:31.211Z,5
2017-08-02T05:54:31.549Z,5
2017-08-02T05:55:30.953Z,5
2017-08-02T05:56:31.294Z,5
2017-08-02T05:57:31.646Z,5
2017-08-02T05:58:31.031Z,5
2017-08-02T05:59:31.359Z,5
2017-08-02T06:00:31.085Z,10
2017-08-02T06:01:31.147Z,10
2017-08-02T06:02:31.163Z,5
2017-08-02T06:03:31.185Z,5
2017-08-02T06:04:30.888Z,5
2017-08-02T06:05:31.545Z,5
2017-08-02T06:06:31.262Z,10
2017-08-02T06:07:31.914Z,10
2017-08-02T06:08:31.007Z,10
2017-08-02T06:09:32.292Z,10
2017-08-02T06:10:31.385Z,10
2017-08-02T06:11:31.730Z,10
2017-08-02T06:12:31.440Z,15
2017-08-02T06:13:32.099Z,10
2017-08-02T06:14:32.115Z,10
2017-08-02T06:15:31.217Z,10
2017-08-02T06:16:31.862Z,15
2017-08-02T06:17:31.899Z,15
2017-08-02T06:18:31.931Z,15
2017-08-02T06:19:32.545Z,20
2017-08-02T06:20:32.289Z,15
2017-08-02T06:21:31.386Z,15
2017-08-02T06:22:32.368Z,15
2017-08-02T06:23:32.388Z,15
2017-08-02T06:24:32.357Z,15
2017-08-02T06:25:32.117Z,15
2017-08-02T06:26:32.474Z,15
2017-08-02T06:27:31.887Z,20
2017-08-02T06:28:32.528Z,20
2017-08-02T06:29:32.521Z,15
2017-08-02T06:30:32.265Z,15
2017-08-02T06:31:32.290Z,10
2017-08-02T06:32:32.326Z,10
2017-08-02T06:33:32.672Z,5
2017-08-02T06:34:31.781Z,5
2017-08-02T06:35:32.427Z,5
2017-08-02T06:36:32.442Z,5
2017-08-02T06:37:32.169Z,5
2017-08-02T06:38:32.195Z,10
2017-08-02T06:39:32.157Z,15
2017-08-02T06:40:32.249Z,15
2017-08-02T06:41:32.607Z,10
2017-08-02T06:42:32.938Z,10
2017-08-02T06:43:32.650Z,10
2017-08-02T06:44:32.932Z,10
2017-08-02T06:45:32.074Z,10
2017-08-02T06:46:32.767Z,15
2017-08-02T06:47:32.143Z,20
2017-08-02T06:48:32.478Z,20
2017-08-02T06:49:33.108Z,20
2017-08-02T06:50:32.542Z,15
2017-08-02T06:51:32.261Z,15
2017-08-02T06:52:32.903Z,20
2017-08-02T06:53:32.975Z,20
2017-08-02T06:54:33.312Z,20
2017-08-02T06:55:33.300Z,15
2017-08-02T06:56:33.027Z,20
2017-08-02T06:57:32.739Z,15
2017-08-02T06:58:32.763Z,15
2017-08-02T06:59:32.782Z,20
2017-08-02T07:00:32.504Z,20
2017-08-02T07:01:33.487Z,20
2017-08-02T07:02:32.874Z,15
2017-08-02T07:03:33.211Z,15
2017-08-02T07:04:33.232Z,15
2017-08-02T07:05:33.268Z,15
2017-08-02T07:06:33.309Z,15
2017-08-02T07:07:33.020Z,15
2017-08-02T07:08:32.420Z,15
2017-08-02T07:09:33.650Z,10
2017-08-02T07:10:33.426Z,10
2017-08-02T07:11:33.451Z,10
2017-08-02T07:12:33.174Z,15
2017-08-02T07:13:33.200Z,15
2017-08-02T07:14:33.789Z,20
2017-08-02T07:15:33.570Z,20
2017-08-02T07:16:33.283Z,20
2017-08-02T07:17:33.628Z,15
2017-08-02T07:18:33.058Z,15
2017-08-02T07:19:33.622Z,10
2017-08-02T07:20:32.773Z,10
2017-08-02T07:21:33.748Z,10
2017-08-02T07:22:33.768Z,10
2017-08-02T07:23:33.809Z,10
2017-08-02T07:24:33.457Z,10
2017-08-02T07:25:34.167Z,10
2017-08-02T07:26:33.903Z,10
2017-08-02T07:27:33.920Z,10
2017-08-02T07:28:33.941Z,10
2017-08-02T07:29:33.959Z,5
2017-08-02T07:30:34.334Z,5
2017-08-02T07:31:33.718Z,5
2017-08-02T07:32:33.747Z,5
2017-08-02T07:33:33.780Z,10
2017-08-02T07:34:34.680Z,10
2017-08-02T07:35:33.837Z,10
2017-08-02T07:36:33.552Z,10
2017-08-02T07:37:33.894Z,10
2017-08-02T07:38:33.919Z,10
2017-08-02T07:39:34.576Z,10
2017-08-02T07:40:33.985Z,10
2017-08-02T07:41:34.333Z,10
2017-08-02T07:42:34.360Z,10
2017-08-02T07:43:33.449Z,10
2017-08-02T07:44:34.657Z,10
2017-08-02T07:45:34.454Z,10
2017-08-02T07:46:34.141Z,10
2017-08-02T07:47:34.813Z,15
2017-08-02T07:48:33.902Z,10
2017-08-02T07:49:35.161Z,10
2017-08-02T07:50:34.918Z,15
2017-08-02T07:51:33.981Z,15
2017-08-02T07:52:34.952Z,20
2017-08-02T07:53:34.666Z,15
2017-08-02T07:54:35.020Z,10
2017-08-02T07:55:34.708Z,10
2017-08-02T07:56:34.445Z,15
2017-08-02T07:57:34.785Z,10
2017-08-02T07:58:34.820Z,15
2017-08-02T07:59:34.845Z,10
2017-08-02T08:00:35.188Z,10
2017-08-02T08:01:34.588Z,10
2017-08-02T08:02:34.924Z,10
2017-08-02T08:03:34.953Z,15
2017-08-02T08:04:34.670Z,10
2017-08-02T08:05:35.015Z,10
2017-08-02T08:06:35.039Z,10
2017-08-02T08:07:35.381Z,15
2017-08-02T08:08:34.807Z,15
2017-08-02T08:09:35.130Z,15
2017-08-02T08:10:35.142Z,15
2017-08-02T08:11:34.568Z,15
2017-08-02T08:12:34.905Z,15
2017-08-02T08:13:35.578Z,15
2017-08-02T08:14:35.265Z,15
2017-08-02T08:15:35.903Z,15
2017-08-02T08:16:35.651Z,15
2017-08-02T08:17:35.049Z,15
2017-08-02T08:18:34.779Z,15
2017-08-02T08:19:35.419Z,15
2017-08-02T08:20:35.075Z,15
2017-08-02T08:21:34.852Z,10
2017-08-02T08:22:35.496Z,15
2017-08-02T08:23:35.545Z,15
2017-08-02T08:24:35.866Z,15
2017-08-02T08:25:36.154Z,15
2017-08-02T08:26:35.628Z,15
2017-08-02T08:27:35.354Z,15
2017-08-02T08:28:35.682Z,15
2017-08-02T08:29:35.406Z,15
2017-08-02T08:30:36.351Z,15
2017-08-02T08:31:35.796Z,15
2017-08-02T08:32:35.793Z,15
2017-08-02T08:33:35.829Z,15
2017-08-02T08:34:35.859Z,15
2017-08-02T08:35:36.443Z,15
2017-08-02T08:36:35.607Z,15
2017-08-02T08:37:35.321Z,15
2017-08-02T08:38:35.358Z,15
2017-08-02T08:39:35.687Z,15
2017-08-02T08:40:36.323Z,15
2017-08-02T08:41:36.378Z,25
2017-08-02T08:42:36.076Z,20
2017-08-02T08:43:35.804Z,20
2017-08-02T08:44:35.830Z,15
2017-08-02T08:45:36.175Z,20
2017-08-02T08:46:35.576Z,15
2017-08-02T08:47:35.921Z,15
2017-08-02T08:48:35.634Z,15
2017-08-02T08:49:35.978Z,15
2017-08-02T08:50:36.563Z,15
2017-08-02T08:51:35.721Z,15
2017-08-02T08:52:35.753Z,20
2017-08-02T08:53:36.094Z,20
2017-08-02T08:54:35.806Z,20
2017-08-02T08:55:35.859Z,15
2017-08-02T08:56:36.491Z,15
2017-08-02T08:57:36.205Z,15
2017-08-02T08:58:36.237Z,20
2017-08-02T08:59:36.891Z,15
2017-08-02T09:00:37.216Z,20
2017-08-02T09:01:36.640Z,20
2017-08-02T09:02:36.682Z,20
2017-08-02T09:03:36.714Z,20
2017-08-02T09:04:36.722Z,20
2017-08-02T09:05:37.030Z,20
2017-08-02T09:06:36.805Z,20
2017-08-02T09:07:36.501Z,25
2017-08-02T09:08:36.846Z,15
2017-08-02T09:09:36.879Z,20
2017-08-02T09:10:37.205Z,25
2017-08-02T09:11:36.637Z,25
2017-08-02T09:12:36.971Z,25
2017-08-02T09:13:36.681Z,25
2017-08-02T09:14:36.707Z,25
2017-08-02T09:15:37.364Z,25
2017-08-02T09:16:36.140Z,20
2017-08-02T09:17:37.434Z,25
2017-08-02T09:18:36.839Z,20
2017-08-02T09:19:37.163Z,20
2017-08-02T09:20:37.453Z,20
2017-08-02T09:21:36.922Z,25
2017-08-02T09:22:36.325Z,25
2017-08-02T09:23:37.285Z,20
2017-08-02T09:24:37.013Z,20
2017-08-02T09:25:37.643Z,20
2017-08-02T09:26:37.064Z,20
2017-08-02T09:27:37.709Z,20
2017-08-02T09:28:37.123Z,15
2017-08-02T09:29:37.770Z,15
2017-08-02T09:30:37.437Z,15
2017-08-02T09:31:36.894Z,20
2017-08-02T09:32:37.556Z,20
2017-08-02T09:33:37.570Z,20
2017-08-02T09:34:37.916Z,20
2017-08-02T09:35:38.244Z,20
2017-08-02T09:36:37.670Z,20
2017-08-02T09:37:37.382Z,20
2017-08-02T09:38:37.724Z,20
2017-08-02T09:39:37.743Z,20
2017-08-02T09:40:38.095Z,20
2017-08-02T09:41:38.119Z,20
2017-08-02T09:42:37.542Z,20
2017-08-02T09:43:37.556Z,20
2017-08-02T09:44:37.908Z,20
2017-08-02T09:45:37.629Z,20
2017-08-02T09:46:38.254Z,20
2017-08-02T09:47:37.666Z,15
2017-08-02T09:48:37.707Z,20
2017-08-02T09:49:37.731Z,25
2017-08-02T09:50:38.385Z,30
2017-08-02T09:51:37.729Z,30
2017-08-02T09:52:38.445Z,30
2017-08-02T09:53:38.175Z,35
2017-08-02T09:54:38.195Z,40
2017-08-02T09:55:38.225Z,45
2017-08-02T09:56:38.242Z,50
2017-08-02T09:57:38.290Z,50
2017-08-02T09:58:38.302Z,55
2017-08-02T09:59:38.340Z,55
2017-08-02T10:00:37.742Z,60
2017-08-02T10:01:38.710Z,60
2017-08-02T10:02:38.435Z,65
2017-08-02T10:03:38.183Z,60
2017-08-02T10:04:37.868Z,55
2017-08-02T10:05:38.522Z,55
2017-08-02T10:06:38.226Z,55
2017-08-02T10:07:38.270Z,55
2017-08-02T10:08:37.988Z,55
2017-08-02T10:09:38.313Z,55
2017-08-02T10:10:38.349Z,45
2017-08-02T10:11:38.991Z,40
2017-08-02T10:12:38.415Z,45
2017-08-02T10:13:38.783Z,45
2017-08-02T10:14:38.171Z,45
2017-08-02T10:15:38.816Z,55
2017-08-02T10:16:39.105Z,65
2017-08-02T10:17:38.579Z,70
2017-08-02T10:18:39.220Z,55
2017-08-02T10:19:38.925Z,55
2017-08-02T10:20:39.292Z,60
2017-08-02T10:21:39.294Z,60
2017-08-02T10:22:39.020Z,55
2017-08-02T10:23:39.368Z,60
2017-08-02T10:24:38.460Z,60
2017-08-02T10:25:39.437Z,60
2017-08-02T10:26:39.451Z,55
2017-08-02T10:27:39.197Z,50
2017-08-02T10:28:39.192Z,55
2017-08-02T10:29:39.253Z,55
2017-08-02T10:30:39.600Z,55
2017-08-02T10:31:39.303Z,55
2017-08-02T10:32:39.327Z,55
2017-08-02T10:33:39.027Z,50
2017-08-02T10:34:39.709Z,50
2017-08-02T10:35:38.790Z,55
2017-08-02T10:36:39.434Z,60
2017-08-02T10:37:39.473Z,70
2017-08-02T10:38:39.183Z,65
2017-08-02T10:39:39.539Z,55
2017-08-02T10:40:39.573Z,50
2017-08-02T10:41:39.894Z,50
2017-08-02T10:42:39.307Z,55
2017-08-02T10:43:39.351Z,55
2017-08-02T10:44:39.377Z,55
2017-08-02T10:45:39.395Z,60
2017-08-02T10:46:40.048Z,60
2017-08-02T10:47:39.777Z,55
2017-08-02T10:48:39.492Z,50
2017-08-02T10:49:39.525Z,65
2017-08-02T10:50:39.876Z,65
2017-08-02T10:51:40.138Z,55
2017-08-02T10:52:39.607Z,55
2017-08-02T10:53:39.957Z,50
2017-08-02T10:54:39.661Z,45
2017-08-02T10:55:40.002Z,45
2017-08-02T10:56:39.664Z,50
2017-08-02T10:57:39.444Z,55
2017-08-02T10:58:40.100Z,60
2017-08-02T10:59:39.830Z,70
2017-08-02T11:00:39.862Z,65
2017-08-02T11:01:40.499Z,60
2017-08-02T11:02:40.535Z,60
2017-08-02T11:03:39.944Z,55
2017-08-02T11:04:39.972Z,70
2017-08-02T11:05:39.994Z,70
2017-08-02T11:06:40.610Z,75
2017-08-02T11:07:40.680Z,85
2017-08-02T11:08:40.405Z,80
2017-08-02T11:09:40.429Z,80
2017-08-02T11:10:40.782Z,90
2017-08-02T11:11:40.166Z,90
2017-08-02T11:12:40.840Z,85
2017-08-02T11:13:40.546Z,90
2017-08-02T11:14:40.265Z,90
2017-08-02T11:15:40.305Z,90
2017-08-02T11:16:40.022Z,70
2017-08-02T11:17:40.656Z,60
2017-08-02T11:18:40.392Z,60
2017-08-02T11:19:40.766Z,65
2017-08-02T11:20:41.071Z,65
2017-08-02T11:21:40.799Z,65
2017-08-02T11:22:41.071Z,60
2017-08-02T11:23:41.172Z,50
2017-08-02T11:24:40.572Z,50
2017-08-02T11:25:41.227Z,45
2017-08-02T11:26:40.638Z,40
2017-08-02T11:27:41.544Z,40
2017-08-02T11:28:41.317Z,45
2017-08-02T11:29:40.721Z,45
2017-08-02T11:30:41.068Z,50
2017-08-02T11:31:40.468Z,55
2017-08-02T11:32:41.424Z,65
2017-08-02T11:33:40.853Z,70
2017-08-02T11:34:41.225Z,65
2017-08-02T11:35:41.218Z,60
2017-08-02T11:36:41.552Z,65
2017-08-02T11:37:40.640Z,65
2017-08-02T11:38:40.999Z,70
2017-08-02T11:39:40.723Z,65
2017-08-02T11:40:41.371Z,60
2017-08-02T11:41:41.418Z,65
2017-08-02T11:42:41.102Z,65
2017-08-02T11:43:41.464Z,65
2017-08-02T11:44:40.862Z,70
2017-08-02T11:45:41.206Z,70
2017-08-02T11:46:41.547Z,70
2017-08-02T11:47:41.257Z,70
2017-08-02T11:48:41.621Z,75
2017-08-02T11:49:41.646Z,100
2017-08-02T11:50:41.990Z,75
2017-08-02T11:51:42.036Z,100
2017-08-02T11:52:42.070Z,95
2017-08-02T11:53:41.761Z,105
2017-08-02T11:54:41.165Z,95
2017-08-02T11:55:41.198Z,100
2017-08-02T11:56:41.553Z,170
2017-08-02T11:57:42.196Z,155
2017-08-02T11:58:41.910Z,195
2017-08-02T11:59:41.960Z,165
2017-08-02T12:00:42.298Z,210
2017-08-02T12:01:42.018Z,210
2017-08-02T12:02:41.741Z,240
2017-08-02T12:03:42.082Z,90
2017-08-02T12:04:41.797Z,90
2017-08-02T12:05:42.128Z,85
2017-08-02T12:06:42.156Z,75
2017-08-02T12:07:42.189Z,90
2017-08-02T12:08:42.234Z,150
2017-08-02T12:09:41.968Z,90
2017-08-02T12:10:42.599Z,90
2017-08-02T12:11:42.016Z,110
2017-08-02T12:12:42.918Z,200
2017-08-02T12:13:42.702Z,165
2017-08-02T12:14:41.799Z,280
2017-08-02T12:15:41.828Z,190
2017-08-02T12:16:42.172Z,80
2017-08-02T12:17:42.805Z,190
2017-08-02T12:18:42.845Z,185
2017-08-02T12:19:42.570Z,65
2017-08-02T12:20:42.603Z,95
2017-08-02T12:21:42.640Z,80
2017-08-02T12:22:42.649Z,70
2017-08-02T12:23:42.390Z,200
2017-08-02T12:24:42.410Z,130
2017-08-02T12:25:42.766Z,85
2017-08-02T12:26:42.784Z,70
2017-08-02T12:27:43.116Z,80
2017-08-02T12:28:42.546Z,65
2017-08-02T12:29:42.261Z,45
2017-08-02T12:30:42.915Z,50
2017-08-02T12:31:42.955Z,50
2017-08-02T12:32:43.593Z,230
2017-08-02T12:33:43.022Z,190
2017-08-02T12:34:42.734Z,165
2017-08-02T12:35:43.080Z,100
2017-08-02T12:36:43.101Z,130
2017-08-02T12:37:43.400Z,125
2017-08-02T12:38:43.167Z,150
2017-08-02T12:39:42.895Z,130
2017-08-02T12:40:43.543Z,115
2017-08-02T12:41:43.273Z,105
2017-08-02T12:42:43.597Z,135
2017-08-02T12:43:43.319Z,75
2017-08-02T12:44:43.671Z,75
2017-08-02T12:45:43.076Z,80
2017-08-02T12:46:43.125Z,80
2017-08-02T12:47:43.397Z,90
2017-08-02T12:48:43.174Z,85
2017-08-02T12:49:43.834Z,85
2017-08-02T12:50:43.552Z,120
2017-08-02T12:51:42.977Z,120
2017-08-02T12:52:42.997Z,70
2017-08-02T12:53:43.954Z,55
2017-08-02T12:54:43.683Z,85
2017-08-02T12:55:43.400Z,145
2017-08-02T12:56:44.057Z,145
2017-08-02T12:57:43.473Z,130
2017-08-02T12:58:44.434Z,130
2017-08-02T12:59:43.532Z,100
2017-08-02T13:00:43.560Z,110
2017-08-02T13:01:44.245Z,150
2017-08-02T13:02:43.941Z,130
2017-08-02T13:03:43.959Z,130
2017-08-02T13:04:44.025Z,130
2017-08-02T13:05:44.054Z,125
2017-08-02T13:06:43.450Z,125
2017-08-02T13:07:44.425Z,110
2017-08-02T13:08:44.435Z,115
2017-08-02T13:09:44.164Z,85
2017-08-02T13:10:43.900Z,130
2017-08-02T13:11:44.562Z,120
2017-08-02T13:12:44.305Z,120
2017-08-02T13:13:44.603Z,65
2017-08-02T13:14:44.346Z,45
2017-08-02T13:15:44.371Z,55
2017-08-02T13:16:44.103Z,40
2017-08-02T13:17:43.818Z,110
2017-08-02T13:18:44.458Z,125
2017-08-02T13:19:44.808Z,130
2017-08-02T13:20:43.909Z,110
2017-08-02T13:21:44.567Z,100
2017-08-02T13:22:44.602Z,50
2017-08-02T13:23:44.924Z,125
2017-08-02T13:24:44.381Z,135
2017-08-02T13:25:44.697Z,45
2017-08-02T13:26:44.745Z,40
2017-08-02T13:27:45.075Z,50
2017-08-02T13:28:44.431Z,75
2017-08-02T13:29:44.824Z,120
2017-08-02T13:30:44.861Z,130
2017-08-02T13:31:44.916Z,75
2017-08-02T13:32:44.619Z,70
2017-08-02T13:33:44.598Z,85
2017-08-02T13:34:44.697Z,110
2017-08-02T13:35:45.342Z,125
2017-08-02T13:36:45.369Z,110
2017-08-02T13:37:44.770Z,95
2017-08-02T13:38:45.069Z,85
2017-08-02T13:39:45.185Z,75
2017-08-02T13:40:44.886Z,70
2017-08-02T13:41:44.918Z,80
2017-08-02T13:42:44.943Z,90
2017-08-02T13:43:45.228Z,90
2017-08-02T13:44:45.307Z,75
2017-08-02T13:45:45.358Z,70
2017-08-02T13:46:45.394Z,100
2017-08-02T13:47:45.731Z,95
2017-08-02T13:48:45.444Z,100
2017-08-02T13:49:45.793Z,95
2017-08-02T13:50:45.201Z,100
2017-08-02T13:51:45.883Z,95
2017-08-02T13:52:45.931Z,90
2017-08-02T13:53:46.178Z,95
2017-08-02T13:54:45.021Z,90
2017-08-02T13:55:45.994Z,85
2017-08-02T13:56:45.746Z,85
2017-08-02T13:57:46.055Z,85
2017-08-02T13:58:46.031Z,85
2017-08-02T13:59:45.501Z,90
2017-08-02T14:00:45.839Z,60
2017-08-02T14:01:45.563Z,55
2017-08-02T14:02:45.592Z,60
2017-08-02T14:03:46.241Z,90
2017-08-02T14:04:45.984Z,80
2017-08-02T14:05:45.697Z,80
2017-08-02T14:06:45.722Z,75
2017-08-02T14:07:45.459Z,65
2017-08-02T14:08:46.672Z,45
2017-08-02T14:09:45.820Z,35
2017-08-02T14:10:46.169Z,35
2017-08-02T14:11:46.225Z,35
2017-08-02T14:12:45.916Z,40
2017-08-02T14:13:46.517Z,75
2017-08-02T14:14:45.989Z,35
2017-08-02T14:15:45.714Z,35
2017-08-02T14:16:46.075Z,60
2017-08-02T14:17:46.084Z,55
2017-08-02T14:18:46.726Z,30
2017-08-02T14:19:46.777Z,25
2017-08-02T14:20:46.487Z,80
2017-08-02T14:21:45.905Z,85
2017-08-02T14:22:46.560Z,95
2017-08-02T14:23:46.859Z,95
2017-08-02T14:24:46.629Z,80
2017-08-02T14:25:46.343Z,45
2017-08-02T14:26:46.998Z,60